Terminal Aerodrome Forecast
Issued by NWS

Home | Current Version | Previous Version | Text Only | Print | Product List | Glossary On
Versions: 1 2 3 4 5 6 7 8 9 10 11 12 13 14 15
000
FTUS43 KSGF 240800 AAA
TAFBBG
TAF AMD
KBBG 240821Z 2408/2506 VRB03KT 6SM BR FEW035
     FM241000 VRB03KT 4SM BR SKC
      TEMPO 2410/2414 1SM BR
     FM241600 21007KT P6SM SKC=

USA.gov is the U.S. government's official web portal to all federal, state and local government web resources and services.